createdAt,value
2022-09-07T00:00:40.472Z,5.55
2022-09-07T00:05:46.772Z,4.80
2022-09-07T00:10:53.712Z,5.00
2022-09-07T00:15:55.704Z,5.15
2022-09-07T00:21:07.901Z,5.40
2022-09-07T00:26:17.764Z,4.88
2022-09-07T00:31:23.285Z,4.95
2022-09-07T00:36:25.134Z,5.13
2022-09-07T00:41:27.766Z,6.18
2022-09-07T00:46:34.227Z,6.18
2022-09-07T00:51:42.311Z,5.82
2022-09-07T00:56:46.357Z,5.70
2022-09-07T01:01:47.995Z,5.05
2022-09-07T01:06:50.468Z,6.07
2022-09-07T01:11:54.322Z,5.88
2022-09-07T01:17:29.103Z,5.32
2022-09-07T01:22:36.483Z,5.68
2022-09-07T01:28:15.159Z,5.38
2022-09-07T01:33:36.678Z,5.40
2022-09-07T01:38:44.350Z,5.63
2022-09-07T01:44:04.071Z,6.13
2022-09-07T01:49:17.561Z,5.78
2022-09-07T01:54:19.048Z,5.97
2022-09-07T01:59:29.055Z,5.97
2022-09-07T02:04:43.676Z,5.72
2022-09-07T02:09:56.891Z,5.47
2022-09-07T02:15:06.985Z,6.30
2022-09-07T02:20:17.257Z,5.63
2022-09-07T02:25:40.495Z,5.60
2022-09-07T02:30:42.698Z,6.20
2022-09-07T02:35:44.399Z,5.57
2022-09-07T02:40:57.266Z,6.03
2022-09-07T02:46:17.390Z,5.28
2022-09-07T02:51:47.340Z,5.93
2022-09-07T02:57:00.833Z,6.45
2022-09-07T03:02:13.678Z,5.82
2022-09-07T03:07:28.892Z,6.00
2022-09-07T03:12:42.361Z,6.10
2022-09-07T03:17:45.165Z,7.07
2022-09-07T03:22:48.042Z,7.20
2022-09-07T03:27:49.760Z,7.40
2022-09-07T03:32:51.590Z,7.63
2022-09-07T03:37:53.100Z,7.55
2022-09-07T03:42:54.647Z,8.00
2022-09-07T03:47:56.313Z,7.97
2022-09-07T03:52:57.850Z,8.20
2022-09-07T03:57:59.357Z,9.50
2022-09-07T04:03:00.893Z,9.00
2022-09-07T04:08:02.698Z,9.23
2022-09-07T04:13:04.537Z,9.40
2022-09-07T04:18:06.082Z,9.90
2022-09-07T04:23:07.580Z,8.98
2022-09-07T04:28:09.179Z,9.73
2022-09-07T04:33:11.269Z,10.02
2022-09-07T04:38:15.104Z,9.70
2022-09-07T04:43:16.621Z,10.23
2022-09-07T04:48:18.137Z,9.75
2022-09-07T04:53:19.791Z,10.48
2022-09-07T04:58:21.309Z,9.93
2022-09-07T05:03:22.866Z,11.02
2022-09-07T05:08:24.476Z,11.27
2022-09-07T05:13:26.259Z,10.65
2022-09-07T05:18:28.070Z,11.15
2022-09-07T05:23:29.656Z,10.70
2022-09-07T05:28:32.236Z,10.93
2022-09-07T05:38:58.547Z,10.75
2022-09-07T05:49:21.812Z,10.93
2022-09-07T05:54:23.392Z,10.13
2022-09-07T05:59:24.951Z,10.70
2022-09-07T06:04:26.468Z,9.90
2022-09-07T06:09:30.520Z,10.70
2022-09-07T06:14:33.606Z,9.65
2022-09-07T06:19:35.210Z,10.48
2022-09-07T06:24:36.711Z,10.30
2022-09-07T06:29:38.547Z,10.75
2022-09-07T06:34:40.165Z,10.40
2022-09-07T06:39:41.752Z,10.40
2022-09-07T06:44:43.478Z,10.70
2022-09-07T06:49:45.288Z,10.57
2022-09-07T06:55:02.133Z,10.38
2022-09-07T07:00:04.220Z,10.90
2022-09-07T07:05:06.352Z,11.05
2022-09-07T07:10:08.459Z,11.55
2022-09-07T07:15:10.463Z,11.57
2022-09-07T07:20:12.281Z,11.75
2022-09-07T07:25:14.977Z,11.75
2022-09-07T07:30:18.299Z,12.68
2022-09-07T07:35:19.995Z,11.38
2022-09-07T07:40:25.404Z,11.80
2022-09-07T07:51:06.437Z,11.40
2022-09-07T07:56:12.869Z,10.57
2022-09-07T08:01:17.096Z,10.40
2022-09-07T08:06:20.657Z,10.35
2022-09-07T08:11:22.995Z,9.80
2022-09-07T08:16:24.585Z,9.23
2022-09-07T08:21:26.252Z,9.20
2022-09-07T08:26:27.886Z,9.30
2022-09-07T08:31:29.480Z,8.68
2022-09-07T08:36:31.918Z,9.30
2022-09-07T08:42:06.738Z,8.70
2022-09-07T08:47:33.664Z,8.77
2022-09-07T08:52:50.222Z,8.23
2022-09-07T08:58:32.629Z,7.35
2022-09-07T09:09:25.147Z,7.40
2022-09-07T09:14:34.953Z,6.28
2022-09-07T09:19:57.962Z,5.93
2022-09-07T09:25:20.115Z,5.00
2022-09-07T09:30:23.169Z,4.20
2022-09-07T09:35:38.754Z,3.90
2022-09-07T09:40:40.239Z,4.70
2022-09-07T09:56:41.643Z,5.50
2022-09-07T10:07:19.240Z,3.72
2022-09-07T10:12:27.846Z,3.22
2022-09-07T10:17:33.329Z,3.70
2022-09-07T10:22:37.515Z,3.40
2022-09-07T10:27:40.642Z,4.43
2022-09-07T10:33:03.745Z,4.68
2022-09-07T10:38:05.267Z,3.70
2022-09-07T10:43:25.159Z,4.13
2022-09-07T10:48:50.235Z,3.55
2022-09-07T11:05:36.078Z,4.13
2022-09-07T11:10:54.935Z,5.03
2022-09-07T11:16:05.018Z,5.65
2022-09-07T11:21:13.828Z,6.78
2022-09-07T11:26:36.999Z,7.50
2022-09-07T11:31:43.245Z,7.78
2022-09-07T11:37:00.934Z,7.25
2022-09-07T11:47:39.507Z,9.30
2022-09-07T11:52:45.657Z,8.00
2022-09-07T11:58:13.747Z,8.10
2022-09-07T12:03:30.975Z,8.25
2022-09-07T12:09:06.405Z,8.02
2022-09-07T12:14:19.806Z,8.52
2022-09-07T12:19:22.495Z,9.50
2022-09-07T12:24:48.410Z,9.00
2022-09-07T12:30:11.082Z,8.57
2022-09-07T12:35:33.731Z,9.05
2022-09-07T12:40:44.138Z,8.75
2022-09-07T12:45:45.609Z,8.73
2022-09-07T13:02:55.978Z,9.35
2022-09-07T13:08:08.813Z,10.07
2022-09-07T13:18:52.419Z,8.93
2022-09-07T13:29:50.352Z,9.65
2022-09-07T13:35:05.924Z,7.63
2022-09-07T13:40:11.213Z,8.18
2022-09-07T13:45:46.769Z,8.07
2022-09-07T13:50:55.150Z,8.48
2022-09-07T13:56:25.447Z,9.43
2022-09-07T14:01:28.953Z,10.75
2022-09-07T14:06:33.935Z,9.57
2022-09-07T14:11:38.030Z,8.10
2022-09-07T14:16:42.017Z,9.27
2022-09-07T14:21:43.909Z,8.45
2022-09-07T14:26:47.904Z,8.02
2022-09-07T14:31:49.843Z,8.70
2022-09-07T14:36:52.821Z,8.13
2022-09-07T14:41:54.806Z,7.43
2022-09-07T14:46:57.785Z,9.75
2022-09-07T14:52:00.773Z,8.38
2022-09-07T14:57:25.666Z,8.07
2022-09-07T15:02:36.830Z,9.55
2022-09-07T15:07:40.808Z,9.23
2022-09-07T15:12:44.214Z,8.85
2022-09-07T15:17:46.115Z,9.85
2022-09-07T15:22:47.775Z,8.63
2022-09-07T15:27:49.299Z,7.55
2022-09-07T15:32:50.874Z,7.10
2022-09-07T15:43:20.579Z,6.32
2022-09-07T15:48:25.623Z,6.30
2022-09-07T15:58:52.914Z,5.47
2022-09-07T16:03:57.132Z,4.65
2022-09-07T16:08:58.694Z,5.20
2022-09-07T16:14:02.299Z,4.00
2022-09-07T16:19:07.372Z,3.80
2022-09-07T16:24:09.349Z,4.20
2022-09-07T16:29:10.839Z,3.97
2022-09-07T16:34:14.013Z,4.38
2022-09-07T16:39:16.009Z,4.50
2022-09-07T16:44:17.601Z,4.68
2022-09-07T16:49:19.623Z,4.65
2022-09-07T16:54:21.384Z,4.38
2022-09-07T16:59:26.638Z,3.80
2022-09-07T17:04:28.884Z,3.70
2022-09-07T17:09:30.414Z,3.70
2022-09-07T17:14:31.943Z,3.55
2022-09-07T17:19:33.857Z,3.85
2022-09-07T17:24:35.796Z,3.10
2022-09-07T17:29:37.689Z,3.65
2022-09-07T17:34:39.385Z,3.90
2022-09-07T17:39:41.036Z,3.53
2022-09-07T17:44:42.744Z,3.33
2022-09-07T17:49:44.286Z,3.60
2022-09-07T17:54:45.835Z,4.00
2022-09-07T18:00:17.147Z,3.30
2022-09-07T18:05:11.480Z,3.28
2022-09-07T18:10:13.226Z,3.35
2022-09-07T18:15:16.126Z,3.35
2022-09-07T18:20:19.051Z,3.42
2022-09-07T18:25:20.908Z,3.83
2022-09-07T18:30:22.782Z,3.60
2022-09-07T18:35:25.940Z,4.05
2022-09-07T18:40:27.634Z,3.45
2022-09-07T18:45:29.361Z,3.75
2022-09-07T18:50:31.828Z,3.70
2022-09-07T18:55:33.422Z,3.63
2022-09-07T19:00:34.931Z,5.03
2022-09-07T19:05:52.874Z,4.25
2022-09-07T19:10:54.636Z,4.28
2022-09-07T19:16:06.392Z,4.25
2022-09-07T19:21:13.500Z,4.25
2022-09-07T19:26:17.628Z,3.95
2022-09-07T19:31:19.386Z,4.43
2022-09-07T19:36:20.904Z,4.45
2022-09-07T19:41:22.865Z,4.55
2022-09-07T19:46:25.112Z,3.92
2022-09-07T19:51:26.667Z,4.40
2022-09-07T19:56:28.209Z,4.65
2022-09-07T20:01:30.069Z,4.95
2022-09-07T20:06:33.143Z,4.82
2022-09-07T20:11:35.293Z,4.90
2022-09-07T20:16:38.403Z,4.80
2022-09-07T20:21:39.938Z,4.70
2022-09-07T20:26:41.646Z,5.30
2022-09-07T20:31:43.922Z,5.05
2022-09-07T20:36:45.475Z,5.03
2022-09-07T20:41:47.820Z,5.70
2022-09-07T20:46:49.792Z,5.82
2022-09-07T20:51:51.366Z,5.40
2022-09-07T20:56:52.908Z,5.40
2022-09-07T21:01:54.462Z,6.28
2022-09-07T21:06:56.000Z,5.40
2022-09-07T21:11:57.560Z,5.80
2022-09-07T21:16:59.029Z,6.40
2022-09-07T21:22:00.529Z,6.10
2022-09-07T21:27:01.998Z,6.68
2022-09-07T21:32:03.597Z,7.15
2022-09-07T21:37:05.091Z,6.78
2022-09-07T21:42:06.620Z,7.82
2022-09-07T21:47:08.279Z,8.00
2022-09-07T21:52:09.903Z,9.38
2022-09-07T21:57:11.538Z,11.15
2022-09-07T22:02:13.073Z,12.65
2022-09-07T22:07:14.578Z,14.00
2022-09-07T22:12:16.050Z,16.42
2022-09-07T22:17:17.512Z,13.98
2022-09-07T22:22:18.987Z,12.82
2022-09-07T22:27:20.476Z,11.50
2022-09-07T22:32:22.039Z,11.73
2022-09-07T22:37:23.823Z,12.20
2022-09-07T22:42:25.486Z,11.82
2022-09-07T22:47:27.032Z,12.35
2022-09-07T22:52:28.499Z,12.57
2022-09-07T22:57:30.080Z,12.50
2022-09-07T23:02:31.602Z,13.57
2022-09-07T23:07:33.058Z,12.60
2022-09-07T23:12:34.608Z,13.15
2022-09-07T23:17:36.109Z,13.05
2022-09-07T23:22:37.683Z,12.40
2022-09-07T23:27:39.553Z,12.68
2022-09-07T23:32:40.990Z,12.80
2022-09-07T23:37:42.462Z,12.88
2022-09-07T23:42:44.098Z,12.80
2022-09-07T23:47:45.563Z,12.93
2022-09-07T23:52:47.150Z,13.55
2022-09-07T23:57:48.997Z,12.82
